createdAt,value
2019-02-10T00:00:10.306Z,71.50
2019-02-10T00:02:43.678Z,74.27
2019-02-10T00:05:14.188Z,68.40
2019-02-10T00:07:45.347Z,66.37
2019-02-10T00:10:20.264Z,73.33
2019-02-10T00:13:24.725Z,72.07
2019-02-10T00:15:56.525Z,72.23
2019-02-10T00:18:29.539Z,61.83
2019-02-10T00:21:02.296Z,67.03
2019-02-10T00:23:34.178Z,65.90
2019-02-10T00:26:06.304Z,70.93
2019-02-10T00:28:36.923Z,74.47
2019-02-10T00:31:07.387Z,66.97
2019-02-10T00:33:37.918Z,68.33
2019-02-10T00:36:08.702Z,70.57
2019-02-10T00:38:39.192Z,66.03
2019-02-10T00:41:11.249Z,63.33
2019-02-10T00:43:41.772Z,66.80
2019-02-10T00:46:16.021Z,66.13
2019-02-10T00:48:47.817Z,73.60
2019-02-10T00:51:20.110Z,74.87
2019-02-10T00:53:51.322Z,61.97
2019-02-10T00:56:22.147Z,67.70
2019-02-10T00:58:52.600Z,62.60
2019-02-10T01:01:25.688Z,63.40
2019-02-10T01:03:56.206Z,63.90
2019-02-10T01:06:31.286Z,54.13
2019-02-10T01:09:01.753Z,62.60
2019-02-10T01:11:35.488Z,62.67
2019-02-10T01:14:06.289Z,62.17
2019-02-10T01:16:37.215Z,64.77
2019-02-10T01:19:12.800Z,59.40
2019-02-10T01:21:46.013Z,56.77
2019-02-10T01:24:16.413Z,54.33
2019-02-10T01:26:46.786Z,59.23
2019-02-10T01:29:19.379Z,59.83
2019-02-10T01:31:49.712Z,59.63
2019-02-10T01:34:21.520Z,50.67
2019-02-10T01:36:54.461Z,55.87
2019-02-10T01:39:34.635Z,62.57
2019-02-10T01:42:07.696Z,62.10
2019-02-10T01:44:38.087Z,59.00
2019-02-10T01:47:08.605Z,52.13
2019-02-10T01:49:38.930Z,50.07
2019-02-10T01:52:09.335Z,53.00
2019-02-10T01:54:39.614Z,54.03
2019-02-10T01:57:10.022Z,52.43
2019-02-10T01:59:42.594Z,53.50
2019-02-10T02:02:13.061Z,53.43
2019-02-10T02:04:43.515Z,55.10
2019-02-10T02:07:13.942Z,59.20
2019-02-10T02:09:44.370Z,47.37
2019-02-10T02:12:14.703Z,46.80
2019-02-10T02:14:47.273Z,49.57
2019-02-10T02:17:17.738Z,49.90
2019-02-10T02:19:48.031Z,49.63
2019-02-10T02:22:18.348Z,54.80
2019-02-10T02:24:50.182Z,51.03
2019-02-10T02:27:20.583Z,49.40
2019-02-10T02:29:50.902Z,63.07
2019-02-10T02:32:21.315Z,66.53
2019-02-10T02:34:51.674Z,56.40
2019-02-10T02:37:22.033Z,62.67
2019-02-10T02:39:52.303Z,65.87
2019-02-10T02:42:22.627Z,67.23
2019-02-10T02:44:52.951Z,60.87
2019-02-10T02:47:23.325Z,65.23
2019-02-10T02:49:53.607Z,62.40
2019-02-10T02:52:24.121Z,64.97
2019-02-10T02:54:54.384Z,62.97
2019-02-10T02:57:24.746Z,61.63
2019-02-10T02:59:55.075Z,57.07
2019-02-10T03:02:25.389Z,59.27
2019-02-10T03:04:55.757Z,66.63
2019-02-10T03:07:26.075Z,52.93
2019-02-10T03:09:59.926Z,57.60
2019-02-10T03:12:30.223Z,62.03
2019-02-10T03:15:01.533Z,63.53
2019-02-10T03:17:31.950Z,67.73
2019-02-10T03:20:02.346Z,66.83
2019-02-10T03:22:32.749Z,62.70
2019-02-10T03:25:05.091Z,59.03
2019-02-10T03:27:35.350Z,54.07
2019-02-10T03:30:05.688Z,61.97
2019-02-10T03:32:36.072Z,47.67
2019-02-10T03:35:06.691Z,56.90
2019-02-10T03:37:37.030Z,52.90
2019-02-10T03:40:07.348Z,53.97
2019-02-10T03:42:37.678Z,50.23
2019-02-10T03:45:07.967Z,58.27
2019-02-10T03:47:38.302Z,54.67
2019-02-10T03:50:08.654Z,56.97
2019-02-10T03:52:39.066Z,59.80
2019-02-10T03:55:09.298Z,57.87
2019-02-10T03:57:39.610Z,58.73
2019-02-10T04:00:10.040Z,55.33
2019-02-10T04:02:40.404Z,54.73
2019-02-10T04:05:10.732Z,52.77
2019-02-10T04:07:41.104Z,57.43
2019-02-10T04:10:11.529Z,54.80
2019-02-10T04:12:41.853Z,60.07
2019-02-10T04:15:13.219Z,60.70
2019-02-10T04:17:43.634Z,49.07
2019-02-10T04:20:13.949Z,49.10
2019-02-10T04:22:44.306Z,58.53
2019-02-10T04:25:14.682Z,46.83
2019-02-10T04:27:44.992Z,58.00
2019-02-10T04:30:15.299Z,53.47
2019-02-10T04:32:45.620Z,54.43
2019-02-10T04:35:15.985Z,49.33
2019-02-10T04:37:46.604Z,47.47
2019-02-10T04:40:16.998Z,56.50
2019-02-10T04:42:47.304Z,55.07
2019-02-10T04:45:17.659Z,53.80
2019-02-10T04:47:47.953Z,55.70
2019-02-10T04:50:18.241Z,57.30
2019-02-10T04:52:48.600Z,52.47
2019-02-10T04:55:18.904Z,53.97
2019-02-10T04:57:49.223Z,57.13
2019-02-10T05:00:19.587Z,60.77
2019-02-10T05:02:51.047Z,48.77
2019-02-10T05:05:21.314Z,60.47
2019-02-10T05:07:54.566Z,58.47
2019-02-10T05:10:23.594Z,56.00
2019-02-10T05:12:53.982Z,57.37
2019-02-10T05:15:24.283Z,58.07
2019-02-10T05:17:54.588Z,61.53
2019-02-10T05:20:25.073Z,53.27
2019-02-10T05:22:55.437Z,57.47
2019-02-10T05:25:25.847Z,62.50
2019-02-10T05:27:56.131Z,70.47
2019-02-10T05:30:26.478Z,54.20
2019-02-10T05:32:56.805Z,62.27
2019-02-10T05:35:27.106Z,55.77
2019-02-10T05:38:04.028Z,59.57
2019-02-10T05:40:31.545Z,65.90
2019-02-10T05:43:01.954Z,68.33
2019-02-10T05:45:32.262Z,68.07
2019-02-10T05:48:02.651Z,64.53
2019-02-10T05:50:34.042Z,72.97
2019-02-10T05:53:04.376Z,77.13
2019-02-10T05:55:34.747Z,73.63
2019-02-10T05:58:05.381Z,75.60
2019-02-10T06:00:35.735Z,70.07
2019-02-10T06:03:07.630Z,61.53
2019-02-10T06:05:38.084Z,68.80
2019-02-10T06:08:13.389Z,78.07
2019-02-10T06:10:40.379Z,81.70
2019-02-10T06:13:10.787Z,85.43
2019-02-10T06:15:41.205Z,88.70
2019-02-10T06:18:13.361Z,66.87
2019-02-10T06:20:43.653Z,82.43
2019-02-10T06:23:14.099Z,85.20
2019-02-10T06:25:44.497Z,78.73
2019-02-10T06:28:15.011Z,78.23
2019-02-10T06:30:45.384Z,80.80
2019-02-10T06:33:15.729Z,74.20
2019-02-10T06:35:46.212Z,83.30
2019-02-10T06:38:22.306Z,74.93
2019-02-10T06:40:48.754Z,64.07
2019-02-10T06:43:19.077Z,67.30
2019-02-10T06:45:49.340Z,73.60
2019-02-10T06:48:19.597Z,74.77
2019-02-10T06:50:49.907Z,71.00
2019-02-10T06:53:20.193Z,65.43
2019-02-10T06:55:50.517Z,67.57
2019-02-10T06:58:20.811Z,76.13
2019-02-10T07:01:15.401Z,72.60
2019-02-10T07:03:57.834Z,77.13
2019-02-10T07:06:28.214Z,74.27
2019-02-10T07:08:58.559Z,67.30
2019-02-10T07:11:28.961Z,74.47
2019-02-10T07:14:01.104Z,80.43
2019-02-10T07:16:50.248Z,76.00
2019-02-10T07:20:14.065Z,83.37
2019-02-10T07:23:25.873Z,78.57
2019-02-10T07:25:57.880Z,71.90
2019-02-10T07:29:13.164Z,69.77
2019-02-10T07:31:56.879Z,72.17
2019-02-10T07:35:06.321Z,71.43
2019-02-10T07:38:17.767Z,69.70
2019-02-10T07:41:59.658Z,70.53
2019-02-10T07:45:03.835Z,70.73
2019-02-10T07:48:24.399Z,61.00
2019-02-10T07:51:35.864Z,65.80
2019-02-10T07:54:42.242Z,61.83
2019-02-10T07:58:02.509Z,66.23
2019-02-10T08:00:59.626Z,60.57
2019-02-10T08:03:49.409Z,55.80
2019-02-10T08:06:51.231Z,64.07
2019-02-10T08:09:48.952Z,54.87
2019-02-10T08:13:13.061Z,61.40
2019-02-10T08:16:15.901Z,58.33
2019-02-10T08:19:09.316Z,53.63
2019-02-10T08:22:51.317Z,53.73
2019-02-10T08:25:50.053Z,51.10
2019-02-10T08:28:39.512Z,55.90
2019-02-10T08:31:30.800Z,51.23
2019-02-10T08:35:03.655Z,48.60
2019-02-10T08:38:07.258Z,51.80
2019-02-10T08:41:07.838Z,58.73
2019-02-10T08:43:52.834Z,64.73
2019-02-10T08:46:53.226Z,49.23
2019-02-10T08:49:57.126Z,63.73
2019-02-10T08:52:56.296Z,62.97
2019-02-10T08:55:27.244Z,65.03
2019-02-10T08:57:58.071Z,56.73
2019-02-10T09:00:28.909Z,58.33
2019-02-10T09:02:59.346Z,58.10
2019-02-10T09:05:29.749Z,68.03
2019-02-10T09:08:00.426Z,67.03
2019-02-10T09:10:30.872Z,72.03
2019-02-10T09:13:01.338Z,63.80
2019-02-10T09:15:32.287Z,57.13
2019-02-10T09:18:02.575Z,60.87
2019-02-10T09:20:33.889Z,57.07
2019-02-10T09:23:05.825Z,55.73
2019-02-10T09:25:36.154Z,54.83
2019-02-10T09:28:07.560Z,56.50
2019-02-10T09:30:38.925Z,53.57
2019-02-10T09:33:11.779Z,58.60
2019-02-10T09:35:41.840Z,58.10
2019-02-10T09:38:12.229Z,57.50
2019-02-10T09:40:51.563Z,54.23
2019-02-10T09:43:21.986Z,47.33
2019-02-10T09:45:54.778Z,50.67
2019-02-10T09:48:25.118Z,51.43
2019-02-10T09:50:55.442Z,47.70
2019-02-10T09:53:25.745Z,46.93
2019-02-10T09:55:55.990Z,51.73
2019-02-10T09:58:26.341Z,48.07
2019-02-10T10:00:56.702Z,52.83
2019-02-10T10:03:27.202Z,48.37
2019-02-10T10:05:57.618Z,55.10
2019-02-10T10:08:29.405Z,54.30
2019-02-10T10:10:59.897Z,57.20
2019-02-10T10:13:30.301Z,55.97
2019-02-10T10:16:00.857Z,51.33
2019-02-10T10:18:31.214Z,62.80
2019-02-10T10:21:01.621Z,53.20
2019-02-10T10:23:33.158Z,60.13
2019-02-10T10:26:03.559Z,49.20
2019-02-10T10:28:34.196Z,46.50
2019-02-10T10:31:04.521Z,46.37
2019-02-10T10:33:34.871Z,46.90
2019-02-10T10:36:05.266Z,47.30
2019-02-10T10:38:37.163Z,49.20
2019-02-10T10:41:07.521Z,50.50
2019-02-10T10:43:38.048Z,50.43
2019-02-10T10:46:08.459Z,53.43
2019-02-10T10:48:38.913Z,55.93
2019-02-10T10:51:10.980Z,60.77
2019-02-10T10:53:41.333Z,59.93
2019-02-10T10:56:11.859Z,44.10
2019-02-10T10:58:42.442Z,54.03
2019-02-10T11:01:12.858Z,47.17
2019-02-10T11:03:43.342Z,45.40
2019-02-10T11:06:13.825Z,46.27
2019-02-10T11:08:44.218Z,49.90
2019-02-10T11:11:14.475Z,47.30
2019-02-10T11:13:44.839Z,38.53
2019-02-10T11:16:16.244Z,39.00
2019-02-10T11:18:46.694Z,39.23
2019-02-10T11:21:17.044Z,42.37
2019-02-10T11:23:47.629Z,38.33
2019-02-10T11:26:18.093Z,35.27
2019-02-10T11:28:48.475Z,39.30
2019-02-10T11:31:18.762Z,45.33
2019-02-10T11:33:49.427Z,46.53
2019-02-10T11:36:19.728Z,42.83
2019-02-10T11:38:51.179Z,38.23
2019-02-10T11:41:21.510Z,29.53
2019-02-10T11:43:51.924Z,36.20
2019-02-10T11:46:22.265Z,42.23
2019-02-10T11:48:52.865Z,42.70
2019-02-10T11:51:23.196Z,43.40
2019-02-10T11:54:02.316Z,45.00
2019-02-10T11:56:32.776Z,41.43
2019-02-10T11:59:03.713Z,46.43
2019-02-10T12:01:34.354Z,41.47
2019-02-10T12:04:05.111Z,43.87
2019-02-10T12:06:35.598Z,45.23
2019-02-10T12:09:07.074Z,43.23
2019-02-10T12:11:37.774Z,45.90
2019-02-10T12:14:08.203Z,50.87
2019-02-10T12:16:38.620Z,41.63
2019-02-10T12:19:09.062Z,46.27
2019-02-10T12:21:39.480Z,49.67
2019-02-10T12:24:09.748Z,47.00
2019-02-10T12:26:40.161Z,48.67
2019-02-10T12:29:10.590Z,48.97
2019-02-10T12:31:41.010Z,48.80
2019-02-10T12:34:11.330Z,44.00
2019-02-10T12:36:41.662Z,45.00
2019-02-10T12:39:12.140Z,48.00
2019-02-10T12:41:42.624Z,51.07
2019-02-10T12:44:14.662Z,51.87
2019-02-10T12:46:45.092Z,59.57
2019-02-10T12:49:15.374Z,58.37
2019-02-10T12:51:45.686Z,61.77
2019-02-10T12:54:16.012Z,45.63
2019-02-10T12:56:46.392Z,42.43
2019-02-10T12:59:16.722Z,59.07
2019-02-10T13:01:46.994Z,63.57
2019-02-10T13:04:17.430Z,59.87
2019-02-10T13:06:47.841Z,48.00
2019-02-10T13:09:18.212Z,54.63
2019-02-10T13:11:48.696Z,49.37
2019-02-10T13:14:18.970Z,47.13
2019-02-10T13:16:49.310Z,54.93
2019-02-10T13:19:19.760Z,52.40
2019-02-10T13:21:50.146Z,58.90
2019-02-10T13:24:20.579Z,53.57
2019-02-10T13:26:50.875Z,43.17
2019-02-10T13:29:21.201Z,56.00
2019-02-10T13:31:51.781Z,66.57
2019-02-10T13:34:22.312Z,66.23
2019-02-10T13:36:52.706Z,39.00
2019-02-10T13:39:23.090Z,45.23
2019-02-10T13:41:51.880Z,57.20
2019-02-10T13:44:22.533Z,55.17
2019-02-10T13:46:53.047Z,62.03
2019-02-10T13:49:23.410Z,58.90
2019-02-10T13:51:53.814Z,52.90
2019-02-10T13:54:24.376Z,67.03
2019-02-10T13:56:54.702Z,63.23
2019-02-10T13:59:25.115Z,62.67
2019-02-10T14:01:55.461Z,64.20
2019-02-10T14:04:25.908Z,65.17
2019-02-10T14:06:56.317Z,64.43
2019-02-10T14:09:26.549Z,61.07
2019-02-10T14:11:58.802Z,60.27
2019-02-10T14:14:29.226Z,61.50
2019-02-10T14:17:01.830Z,59.67
2019-02-10T14:19:32.132Z,55.87
2019-02-10T14:22:02.563Z,55.63
2019-02-10T14:24:32.972Z,59.57
2019-02-10T14:27:03.309Z,60.43
2019-02-10T14:29:33.748Z,58.63
2019-02-10T14:32:04.112Z,60.43
2019-02-10T14:34:34.494Z,55.37
2019-02-10T14:37:04.958Z,51.40
2019-02-10T14:39:35.334Z,60.27
2019-02-10T14:42:05.679Z,68.90
2019-02-10T14:44:36.161Z,62.23
2019-02-10T14:47:06.548Z,52.77
2019-02-10T14:49:36.994Z,68.63
2019-02-10T14:52:07.312Z,63.87
2019-02-10T14:54:37.837Z,77.50
2019-02-10T14:57:08.226Z,73.20
2019-02-10T14:59:38.553Z,73.33
2019-02-10T15:02:08.880Z,80.33
2019-02-10T15:04:39.188Z,88.63
2019-02-10T15:07:11.072Z,71.80
2019-02-10T15:09:41.508Z,71.37
2019-02-10T15:12:12.022Z,72.40
2019-02-10T15:14:42.542Z,64.57
2019-02-10T15:17:13.095Z,59.53
2019-02-10T15:19:43.518Z,64.90
2019-02-10T15:22:13.965Z,56.87
2019-02-10T15:24:44.381Z,53.03
2019-02-10T15:27:14.864Z,63.83
2019-02-10T15:29:45.257Z,64.90
2019-02-10T15:32:16.853Z,65.97
2019-02-10T15:34:47.621Z,60.93
2019-02-10T15:37:20.200Z,59.20
2019-02-10T15:39:50.569Z,59.53
2019-02-10T15:42:20.942Z,64.07
2019-02-10T15:44:51.316Z,65.00
2019-02-10T15:47:21.616Z,60.43
2019-02-10T15:49:52.091Z,60.10
2019-02-10T15:52:22.445Z,66.47
2019-02-10T15:54:52.924Z,65.20
2019-02-10T15:57:23.239Z,53.47
2019-02-10T15:59:53.687Z,52.80
2019-02-10T16:02:24.040Z,59.97
2019-02-10T16:04:54.604Z,57.63
2019-02-10T16:07:24.963Z,60.50
2019-02-10T16:09:55.359Z,61.53
2019-02-10T16:12:25.723Z,64.00
2019-02-10T16:14:57.203Z,45.97
2019-02-10T16:17:27.635Z,63.27
2019-02-10T16:19:58.161Z,47.10
2019-02-10T16:22:29.025Z,67.10
2019-02-10T16:24:59.466Z,51.87
2019-02-10T16:27:30.048Z,45.93
2019-02-10T16:30:02.811Z,58.93
2019-02-10T16:32:33.346Z,51.43
2019-02-10T16:35:05.509Z,54.70
2019-02-10T16:37:35.975Z,42.93
2019-02-10T16:40:07.535Z,59.50
2019-02-10T16:42:39.427Z,47.00
2019-02-10T16:45:10.426Z,43.67
2019-02-10T16:47:40.885Z,46.03
2019-02-10T16:50:12.111Z,45.23
2019-02-10T16:52:43.545Z,47.43
2019-02-10T16:55:14.561Z,51.57
2019-02-10T16:57:45.019Z,47.67
2019-02-10T17:00:15.471Z,52.77
2019-02-10T17:02:46.104Z,37.33
2019-02-10T17:05:16.544Z,40.53
2019-02-10T17:07:46.906Z,50.17
2019-02-10T17:10:17.284Z,47.13
2019-02-10T17:12:47.685Z,53.13
2019-02-10T17:15:18.069Z,48.63
2019-02-10T17:17:48.465Z,46.07
2019-02-10T17:20:18.875Z,43.63
2019-02-10T17:22:50.229Z,43.63
2019-02-10T17:25:20.793Z,45.30
2019-02-10T17:27:51.316Z,48.87
2019-02-10T17:30:21.844Z,53.57
2019-02-10T17:32:52.274Z,50.27
2019-02-10T17:35:22.758Z,54.63
2019-02-10T17:37:53.173Z,58.50
2019-02-10T17:40:28.142Z,51.00
2019-02-10T17:42:58.522Z,44.47
2019-02-10T17:45:29.029Z,51.20
2019-02-10T17:47:59.457Z,51.47
2019-02-10T17:50:29.824Z,49.47
2019-02-10T17:53:00.360Z,41.77
2019-02-10T17:55:30.882Z,56.00
2019-02-10T17:58:01.335Z,57.13
2019-02-10T18:00:35.696Z,51.37
2019-02-10T18:03:06.354Z,38.73
2019-02-10T18:05:36.743Z,44.17
2019-02-10T18:08:09.153Z,45.93
2019-02-10T18:10:39.514Z,50.07
2019-02-10T18:13:11.058Z,51.17
2019-02-10T18:16:13.528Z,40.50
2019-02-10T18:18:59.276Z,53.23
2019-02-10T18:22:03.781Z,55.13
2019-02-10T18:24:43.754Z,55.20
2019-02-10T18:27:39.039Z,50.83
2019-02-10T18:30:30.197Z,48.03
2019-02-10T18:33:19.654Z,52.97
2019-02-10T18:36:09.899Z,52.17
2019-02-10T18:39:05.724Z,51.10
2019-02-10T18:41:54.595Z,51.90
2019-02-10T18:44:41.196Z,53.00
2019-02-10T18:47:34.354Z,52.13
2019-02-10T18:50:35.813Z,54.33
2019-02-10T18:53:16.714Z,55.17
2019-02-10T18:56:14.857Z,55.83
2019-02-10T18:58:55.005Z,62.57
2019-02-10T19:01:37.239Z,64.97
2019-02-10T19:04:25.410Z,76.43
2019-02-10T19:07:13.299Z,70.57
2019-02-10T19:10:00.453Z,56.87
2019-02-10T19:12:44.253Z,64.60
2019-02-10T19:15:22.978Z,63.93
2019-02-10T19:18:15.231Z,70.63
2019-02-10T19:21:19.836Z,64.43
2019-02-10T19:24:01.668Z,62.47
2019-02-10T19:26:59.887Z,65.87
2019-02-10T19:29:52.025Z,72.00
2019-02-10T19:32:41.335Z,67.00
2019-02-10T19:35:39.759Z,62.90
2019-02-10T19:38:34.801Z,68.60
2019-02-10T19:41:23.413Z,71.20
2019-02-10T19:44:11.511Z,67.50
2019-02-10T19:47:02.631Z,68.97
2019-02-10T19:49:51.990Z,72.60
2019-02-10T19:52:39.816Z,71.07
2019-02-10T19:55:19.464Z,77.67
2019-02-10T19:58:13.743Z,77.20
2019-02-10T20:01:09.179Z,74.07
2019-02-10T20:04:01.546Z,68.70
2019-02-10T20:06:49.864Z,74.07
2019-02-10T20:09:48.520Z,71.30
2019-02-10T20:12:36.403Z,74.07
2019-02-10T20:15:17.206Z,62.93
2019-02-10T20:18:05.693Z,69.90
2019-02-10T20:20:48.471Z,59.47
2019-02-10T20:23:37.805Z,63.07
2019-02-10T20:26:45.660Z,58.93
2019-02-10T20:29:37.702Z,65.13
2019-02-10T20:32:39.136Z,66.83
2019-02-10T20:35:23.695Z,64.43
2019-02-10T20:38:11.531Z,61.30
2019-02-10T20:41:00.863Z,68.90
2019-02-10T20:43:50.161Z,60.33
2019-02-10T20:46:29.191Z,65.47
2019-02-10T20:49:18.608Z,65.53
2019-02-10T20:52:06.605Z,60.00
2019-02-10T20:54:57.714Z,63.67
2019-02-10T20:57:59.550Z,69.13
2019-02-10T21:01:01.062Z,53.53
2019-02-10T21:03:58.373Z,66.30
2019-02-10T21:06:43.424Z,71.33
2019-02-10T21:09:31.670Z,65.57
2019-02-10T21:12:20.376Z,67.50
2019-02-10T21:15:07.582Z,69.20
2019-02-10T21:17:57.944Z,67.53
2019-02-10T21:20:47.141Z,69.93
2019-02-10T21:23:44.376Z,76.93
2019-02-10T21:26:33.808Z,69.63
2019-02-10T21:29:19.144Z,74.70
2019-02-10T21:32:11.392Z,70.73
2019-02-10T21:34:50.828Z,71.83
2019-02-10T21:37:39.166Z,79.67
2019-02-10T21:40:39.033Z,73.60
2019-02-10T21:43:21.329Z,71.10
2019-02-10T21:46:09.553Z,70.07
2019-02-10T21:48:49.261Z,70.10
2019-02-10T21:51:19.579Z,66.33
2019-02-10T21:53:49.890Z,66.10
2019-02-10T21:56:20.225Z,62.70
2019-02-10T21:58:50.509Z,68.87
2019-02-10T22:01:20.801Z,65.30
2019-02-10T22:03:51.183Z,55.80
2019-02-10T22:06:21.439Z,62.77
2019-02-10T22:08:52.049Z,61.67
2019-02-10T22:11:22.364Z,57.20
2019-02-10T22:13:52.666Z,50.80
2019-02-10T22:16:23.558Z,56.73
2019-02-10T22:18:53.836Z,50.63
2019-02-10T22:21:24.197Z,53.60
2019-02-10T22:23:54.561Z,53.10
2019-02-10T22:26:24.821Z,48.53
2019-02-10T22:28:55.103Z,49.13
2019-02-10T22:31:26.675Z,44.87
2019-02-10T22:33:57.210Z,46.83
2019-02-10T22:36:27.584Z,35.50
2019-02-10T22:38:58.016Z,44.30
2019-02-10T22:41:28.340Z,45.20
2019-02-10T22:43:58.664Z,40.57
2019-02-10T22:46:29.105Z,33.13
2019-02-10T22:48:59.348Z,34.87
2019-02-10T22:51:29.686Z,36.53
2019-02-10T22:54:00.030Z,33.97
2019-02-10T22:56:30.249Z,37.27
2019-02-10T22:59:00.702Z,36.53
2019-02-10T23:01:32.026Z,29.70
2019-02-10T23:04:02.447Z,34.57
2019-02-10T23:06:32.812Z,35.17
2019-02-10T23:09:05.035Z,32.97
2019-02-10T23:11:36.525Z,35.93
2019-02-10T23:14:06.982Z,36.17
2019-02-10T23:16:37.478Z,34.40
2019-02-10T23:19:08.093Z,32.70
2019-02-10T23:21:38.511Z,33.17
2019-02-10T23:24:09.105Z,33.33
2019-02-10T23:26:39.478Z,31.27
2019-02-10T23:29:09.888Z,28.60
2019-02-10T23:31:40.218Z,24.43
2019-02-10T23:34:10.552Z,24.73
2019-02-10T23:36:41.044Z,25.00
2019-02-10T23:39:11.460Z,27.43
2019-02-10T23:41:41.825Z,27.73
2019-02-10T23:44:12.150Z,25.50
2019-02-10T23:46:42.564Z,26.70
2019-02-10T23:49:12.890Z,21.07
2019-02-10T23:51:43.220Z,24.23
2019-02-10T23:54:13.618Z,26.77
2019-02-10T23:56:47.186Z,21.67
2019-02-10T23:59:15.918Z,22.20
